Albert Maersk — OUOW2 — position and weather

sailwx.info

Track history (hours):
 
Tides and Currents Weather Stations Pressure Air Temp Water Temp Dewpoint Dewpoint Depression Visibility Wind Speed Wind Dir Waves Ship Positions

Albert Maersk

Last reported at 2016-Apr-13 05:33 UTC. Time now 2016-May-05 01:03 UTC.
Position N 40°29' W 073°54'.
Warning: this ship's position is 21 days out of date.

MMSI: 220259928.

Date/timePositionNaut miles runAvg speedWind from/ knotsBaromVisibWave heightAir tempDewpointWater temp
2016-Apr-13 05:33N 40°29' W 073°54'10 9.9
2016-Apr-13 04:33N 40°37' W 074°03'5 4.9
2016-Apr-13 03:33N 40°39' W 074°09'2 2.2
2016-Apr-13 02:30N 40°41' W 074°09'0 0.0
2016-Apr-13 00:23N 40°41' W 074°09'0 0.0
2016-Apr-12 23:32N 40°41' W 074°09'0 0.0
2016-Apr-12 22:32N 40°41' W 074°09'0 0.0
2016-Apr-12 21:17N 40°41' W 074°09'0 0.0
2016-Apr-12 20:23N 40°41' W 074°09'0 0.0
2016-Apr-12 19:23N 40°41' W 074°09'0 0.0
2016-Apr-12 16:26N 40°41' W 074°09'0 0.0
2016-Apr-12 15:20N 40°41' W 074°09'0 0.0
2016-Apr-12 14:26N 40°41' W 074°09'0 0.0
2016-Apr-12 13:26N 40°41' W 074°09'0 0.0
2016-Apr-12 12:32N 40°41' W 074°09'0 0.0
2016-Apr-12 11:14N 40°41' W 074°09'0 0.0
2016-Apr-12 10:29N 40°41' W 074°09'0 0.0
2016-Apr-12 08:26N 40°41' W 074°09'0 0.0
2016-Apr-12 07:26N 40°41' W 074°09'0 0.0
2016-Apr-12 06:32N 40°41' W 074°09'0 0.0
2016-Apr-12 05:29N 40°41' W 074°09'0 0.0
2016-Apr-12 04:32N 40°41' W 074°09'0 0.0
2016-Apr-11 23:15N 40°41' W 074°09'1 1.8
2016-Apr-11 22:34N 40°40' W 074°09'4 4.0
2016-Apr-11 21:33N 40°38' W 074°03'4 3.8
2016-Apr-11 20:34N 40°35' W 074°02'6711.2
2016-Apr-11 14:33N 39°29' W 073°41'1916.9
2016-Apr-11 13:26N 39°11' W 073°43'1516.8
2016-Apr-11 12:33N 38°56' W 073°44'3717.1
2016-Apr-11 10:25N 38°19' W 073°48'  
2016-Apr-07 18:06N 26°10' W 079°22'5 7.6
2016-Apr-07 17:27N 26°08' W 079°27'7 7.5
2016-Apr-07 16:34N 26°04' W 079°33'7 7.4
2016-Apr-07 15:34N 26°00' W 079°40'7 7.1
2016-Apr-07 14:34N 25°57' W 079°47'7 6.9
2016-Apr-07 13:34N 25°53' W 079°53'7 7.0
2016-Apr-07 12:34N 25°49' W 079°60'8 8.0
2016-Apr-07 11:33N 25°46' W 080°08'1 1.4
2016-Apr-07 10:34N 25°46' W 080°09'0 0.1
2016-Apr-07 09:33N 25°46' W 080°09'0 0.0
2016-Apr-07 08:33N 25°46' W 080°09'0 0.0
2016-Apr-07 07:30N 25°46' W 080°09'0 0.0
2016-Apr-07 06:30N 25°46' W 080°09'0 0.0
2016-Apr-07 05:30N 25°46' W 080°09'0 0.0
2016-Apr-07 04:33N 25°46' W 080°09'0 0.0
2016-Apr-07 03:33N 25°46' W 080°09'0 0.0
2016-Apr-07 02:33N 25°46' W 080°09'0 0.0
2016-Apr-07 01:30N 25°46' W 080°09'0 0.0
2016-Apr-07 00:30N 25°46' W 080°09'0 0.0
2016-Apr-06 23:33N 25°46' W 080°09'0 0.0
2016-Apr-06 22:33N 25°46' W 080°09'0 0.0
2016-Apr-06 21:30N 25°46' W 080°09'0 0.0
2016-Apr-06 20:24N 25°46' W 080°09'0 0.0
2016-Apr-06 19:33N 25°46' W 080°09'0 0.0
2016-Apr-06 18:33N 25°46' W 080°09'0 0.0
2016-Apr-06 17:33N 25°46' W 080°09'0 0.0
2016-Apr-06 16:30N 25°46' W 080°09'0 0.0
2016-Apr-06 15:33N 25°46' W 080°09'1 1.1
2016-Apr-06 14:33N 25°46' W 080°08'7 7.3
2016-Apr-06 13:33N 25°50' W 080°02'1111.3
2016-Apr-06 12:33N 26°01' W 080°00'1514.7
2016-Apr-06 11:33N 26°16' W 079°58'1414.3
2016-Apr-06 10:33N 26°30' W 079°55'1414.1
2016-Apr-06 09:33N 26°44' W 079°54'1514.5
2016-Apr-06 08:33N 26°59' W 079°55'1614.5
2016-Apr-06 07:25N 27°15' W 079°56'29910.3
2016-Apr-05 02:14N 32°08' W 081°08'0 0.0
2016-Apr-05 01:32N 32°08' W 081°08'0 0.0
2016-Apr-05 00:32N 32°08' W 081°08'0 0.0
2016-Apr-04 23:32N 32°08' W 081°08'0 0.0
2016-Apr-04 22:32N 32°08' W 081°08'0 0.0
2016-Apr-04 21:32N 32°08' W 081°08'0 0.0
2016-Apr-04 20:32N 32°08' W 081°08'0 0.0
2016-Apr-04 19:32N 32°08' W 081°08'0 0.0
2016-Apr-04 18:32N 32°08' W 081°08'0 0.0
2016-Apr-04 17:32N 32°08' W 081°08'0 0.0
2016-Apr-04 16:32N 32°08' W 081°08'0 0.0
2016-Apr-04 15:32N 32°08' W 081°08'0 0.0
2016-Apr-04 14:32N 32°08' W 081°08'0 0.0
2016-Apr-04 13:32N 32°08' W 081°08'0 0.0
2016-Apr-04 12:32N 32°08' W 081°08'0 0.0
2016-Apr-04 11:32N 32°08' W 081°08'0 0.0
2016-Apr-04 10:32N 32°08' W 081°08'0 0.0
2016-Apr-04 09:32N 32°08' W 081°08'0 0.0
2016-Apr-04 08:32N 32°08' W 081°08'0 0.0
2016-Apr-04 07:32N 32°08' W 081°08'0 0.0
2016-Apr-04 06:32N 32°08' W 081°08'0 0.0
2016-Apr-04 05:32N 32°08' W 081°08'0 0.0
2016-Apr-04 04:32N 32°08' W 081°08'0 0.0
2016-Apr-04 03:32N 32°08' W 081°08'0 0.0
2016-Apr-04 02:32N 32°08' W 081°08'0 0.0
2016-Apr-04 01:32N 32°08' W 081°08'0 0.0
2016-Apr-04 00:32N 32°08' W 081°08'0 0.0
2016-Apr-03 23:32N 32°08' W 081°08'0 0.0
2016-Apr-03 22:33N 32°08' W 081°08'5 4.6
2016-Apr-03 21:33N 32°05' W 081°04'8 7.7
2016-Apr-03 20:33N 32°02' W 080°56'1312.8
2016-Apr-03 19:34N 31°57' W 080°42'4 3.7
2016-Apr-03 18:33N 31°56' W 080°38'6 6.1
2016-Apr-03 17:33N 31°57' W 080°30'3 3.0
2016-Apr-03 16:33N 31°57' W 080°27'  
Track history (hours):
 
Tides and Currents Weather Stations Pressure Air Temp Water Temp Dewpoint Dewpoint Depression Visibility Wind Speed Wind Dir Waves Ship Positions

Albert Maersk

Last reported at 2016-Apr-13 05:33 UTC. Time now 2016-May-05 01:03 UTC.
Position N 40°29' W 073°54'.
Warning: this ship's position is 21 days out of date.

MMSI: 220259928.

Date/timePositionNaut miles runAvg speedWind from/ knotsBaromVisibWave heightAir tempDewpointWater temp
2016-Apr-13 05:33N 40°29' W 073°54'10 9.9
2016-Apr-13 04:33N 40°37' W 074°03'5 4.9
2016-Apr-13 03:33N 40°39' W 074°09'2 2.2
2016-Apr-13 02:30N 40°41' W 074°09'0 0.0
2016-Apr-13 00:23N 40°41' W 074°09'0 0.0
2016-Apr-12 23:32N 40°41' W 074°09'0 0.0
2016-Apr-12 22:32N 40°41' W 074°09'0 0.0
2016-Apr-12 21:17N 40°41' W 074°09'0 0.0
2016-Apr-12 20:23N 40°41' W 074°09'0 0.0
2016-Apr-12 19:23N 40°41' W 074°09'0 0.0
2016-Apr-12 16:26N 40°41' W 074°09'0 0.0
2016-Apr-12 15:20N 40°41' W 074°09'0 0.0
2016-Apr-12 14:26N 40°41' W 074°09'0 0.0
2016-Apr-12 13:26N 40°41' W 074°09'0 0.0
2016-Apr-12 12:32N 40°41' W 074°09'0 0.0
2016-Apr-12 11:14N 40°41' W 074°09'0 0.0
2016-Apr-12 10:29N 40°41' W 074°09'0 0.0
2016-Apr-12 08:26N 40°41' W 074°09'0 0.0
2016-Apr-12 07:26N 40°41' W 074°09'0 0.0
2016-Apr-12 06:32N 40°41' W 074°09'0 0.0
2016-Apr-12 05:29N 40°41' W 074°09'0 0.0
2016-Apr-12 04:32N 40°41' W 074°09'0 0.0
2016-Apr-11 23:15N 40°41' W 074°09'1 1.8
2016-Apr-11 22:34N 40°40' W 074°09'4 4.0
2016-Apr-11 21:33N 40°38' W 074°03'4 3.8
2016-Apr-11 20:34N 40°35' W 074°02'6711.2
2016-Apr-11 14:33N 39°29' W 073°41'1916.9
2016-Apr-11 13:26N 39°11' W 073°43'1516.8
2016-Apr-11 12:33N 38°56' W 073°44'3717.1
2016-Apr-11 10:25N 38°19' W 073°48'  
2016-Apr-07 18:06N 26°10' W 079°22'5 7.6
2016-Apr-07 17:27N 26°08' W 079°27'7 7.5
2016-Apr-07 16:34N 26°04' W 079°33'7 7.4
2016-Apr-07 15:34N 26°00' W 079°40'7 7.1
2016-Apr-07 14:34N 25°57' W 079°47'7 6.9
2016-Apr-07 13:34N 25°53' W 079°53'7 7.0
2016-Apr-07 12:34N 25°49' W 079°60'8 8.0
2016-Apr-07 11:33N 25°46' W 080°08'1 1.4
2016-Apr-07 10:34N 25°46' W 080°09'0 0.1
2016-Apr-07 09:33N 25°46' W 080°09'0 0.0
2016-Apr-07 08:33N 25°46' W 080°09'0 0.0
2016-Apr-07 07:30N 25°46' W 080°09'0 0.0
2016-Apr-07 06:30N 25°46' W 080°09'0 0.0
2016-Apr-07 05:30N 25°46' W 080°09'0 0.0
2016-Apr-07 04:33N 25°46' W 080°09'0 0.0
2016-Apr-07 03:33N 25°46' W 080°09'0 0.0
2016-Apr-07 02:33N 25°46' W 080°09'0 0.0
2016-Apr-07 01:30N 25°46' W 080°09'0 0.0
2016-Apr-07 00:30N 25°46' W 080°09'0 0.0
2016-Apr-06 23:33N 25°46' W 080°09'0 0.0
2016-Apr-06 22:33N 25°46' W 080°09'0 0.0
2016-Apr-06 21:30N 25°46' W 080°09'0 0.0
2016-Apr-06 20:24N 25°46' W 080°09'0 0.0
2016-Apr-06 19:33N 25°46' W 080°09'0 0.0
2016-Apr-06 18:33N 25°46' W 080°09'0 0.0
2016-Apr-06 17:33N 25°46' W 080°09'0 0.0
2016-Apr-06 16:30N 25°46' W 080°09'0 0.0
2016-Apr-06 15:33N 25°46' W 080°09'1 1.1
2016-Apr-06 14:33N 25°46' W 080°08'7 7.3
2016-Apr-06 13:33N 25°50' W 080°02'1111.3
2016-Apr-06 12:33N 26°01' W 080°00'1514.7
2016-Apr-06 11:33N 26°16' W 079°58'1414.3
2016-Apr-06 10:33N 26°30' W 079°55'1414.1
2016-Apr-06 09:33N 26°44' W 079°54'1514.5
2016-Apr-06 08:33N 26°59' W 079°55'1614.5
2016-Apr-06 07:25N 27°15' W 079°56'29910.3
2016-Apr-05 02:14N 32°08' W 081°08'0 0.0
2016-Apr-05 01:32N 32°08' W 081°08'0 0.0
2016-Apr-05 00:32N 32°08' W 081°08'0 0.0
2016-Apr-04 23:32N 32°08' W 081°08'0 0.0
2016-Apr-04 22:32N 32°08' W 081°08'0 0.0
2016-Apr-04 21:32N 32°08' W 081°08'0 0.0
2016-Apr-04 20:32N 32°08' W 081°08'0 0.0
2016-Apr-04 19:32N 32°08' W 081°08'0 0.0
2016-Apr-04 18:32N 32°08' W 081°08'0 0.0
2016-Apr-04 17:32N 32°08' W 081°08'0 0.0
2016-Apr-04 16:32N 32°08' W 081°08'0 0.0
2016-Apr-04 15:32N 32°08' W 081°08'0 0.0
2016-Apr-04 14:32N 32°08' W 081°08'0 0.0
2016-Apr-04 13:32N 32°08' W 081°08'0 0.0
2016-Apr-04 12:32N 32°08' W 081°08'0 0.0
2016-Apr-04 11:32N 32°08' W 081°08'0 0.0
2016-Apr-04 10:32N 32°08' W 081°08'0 0.0
2016-Apr-04 09:32N 32°08' W 081°08'0 0.0
2016-Apr-04 08:32N 32°08' W 081°08'0 0.0
2016-Apr-04 07:32N 32°08' W 081°08'0 0.0
2016-Apr-04 06:32N 32°08' W 081°08'0 0.0
2016-Apr-04 05:32N 32°08' W 081°08'0 0.0
2016-Apr-04 04:32N 32°08' W 081°08'0 0.0
2016-Apr-04 03:32N 32°08' W 081°08'0 0.0
2016-Apr-04 02:32N 32°08' W 081°08'0 0.0
2016-Apr-04 01:32N 32°08' W 081°08'0 0.0
2016-Apr-04 00:32N 32°08' W 081°08'0 0.0
2016-Apr-03 23:32N 32°08' W 081°08'0 0.0
2016-Apr-03 22:33N 32°08' W 081°08'5 4.6
2016-Apr-03 21:33N 32°05' W 081°04'8 7.7
2016-Apr-03 20:33N 32°02' W 080°56'1312.8
2016-Apr-03 19:34N 31°57' W 080°42'4 3.7
2016-Apr-03 18:33N 31°56' W 080°38'6 6.1
2016-Apr-03 17:33N 31°57' W 080°30'3 3.0
2016-Apr-03 16:33N 31°57' W 080°27'  

Dump ship's entire track history